sensor_id;sensor_type;location;lat;lon;timestamp;P1;durP1;ratioP1;P2;durP2;ratioP2
73585;SDS011;61865;50.232;18.614;2022-09-06T00:02:05;12.30;;;4.97;;
73585;SDS011;61865;50.232;18.614;2022-09-06T00:04:27;10.63;;;5.10;;
73585;SDS011;61865;50.232;18.614;2022-09-06T00:06:50;9.63;;;5.43;;
73585;SDS011;61865;50.232;18.614;2022-09-06T00:09:12;9.35;;;5.13;;
73585;SDS011;61865;50.232;18.614;2022-09-06T00:11:34;8.38;;;4.85;;
73585;SDS011;61865;50.232;18.614;2022-09-06T00:13:57;13.27;;;4.85;;
73585;SDS011;61865;50.232;18.614;2022-09-06T00:16:19;9.55;;;5.38;;
73585;SDS011;61865;50.232;18.614;2022-09-06T00:18:43;10.25;;;4.38;;
73585;SDS011;61865;50.232;18.614;2022-09-06T00:21:12;10.60;;;4.95;;
73585;SDS011;61865;50.232;18.614;2022-09-06T00:23:37;7.68;;;4.07;;
73585;SDS011;61865;50.232;18.614;2022-09-06T00:26:02;12.10;;;4.72;;
73585;SDS011;61865;50.232;18.614;2022-09-06T00:28:25;13.43;;;5.07;;
73585;SDS011;61865;50.232;18.614;2022-09-06T00:30:47;9.68;;;4.47;;
73585;SDS011;61865;50.232;18.614;2022-09-06T00:33:09;6.97;;;4.25;;
73585;SDS011;61865;50.232;18.614;2022-09-06T00:35:31;7.15;;;3.83;;
73585;SDS011;61865;50.232;18.614;2022-09-06T00:37:55;7.20;;;4.05;;
73585;SDS011;61865;50.232;18.614;2022-09-06T00:40:19;7.10;;;3.78;;
73585;SDS011;61865;50.232;18.614;2022-09-06T00:42:41;8.52;;;4.13;;
73585;SDS011;61865;50.232;18.614;2022-09-06T00:45:03;6.93;;;4.18;;
73585;SDS011;61865;50.232;18.614;2022-09-06T00:47:26;7.80;;;4.05;;
73585;SDS011;61865;50.232;18.614;2022-09-06T00:49:50;10.45;;;3.85;;
73585;SDS011;61865;50.232;18.614;2022-09-06T00:52:16;10.85;;;4.20;;
73585;SDS011;61865;50.232;18.614;2022-09-06T00:54:39;6.18;;;3.28;;
73585;SDS011;61865;50.232;18.614;2022-09-06T00:57:04;5.97;;;3.60;;
73585;SDS011;61865;50.232;18.614;2022-09-06T00:59:26;6.18;;;3.50;;
73585;SDS011;61865;50.232;18.614;2022-09-06T01:01:51;5.93;;;3.08;;
73585;SDS011;61865;50.232;18.614;2022-09-06T01:04:13;7.43;;;3.22;;
73585;SDS011;61865;50.232;18.614;2022-09-06T01:06:39;8.45;;;3.63;;
73585;SDS011;61865;50.232;18.614;2022-09-06T01:09:09;5.85;;;3.17;;
73585;SDS011;61865;50.232;18.614;2022-09-06T01:11:45;9.20;;;3.90;;
73585;SDS011;61865;50.232;18.614;2022-09-06T01:14:21;7.57;;;3.42;;
73585;SDS011;61865;50.232;18.614;2022-09-06T01:16:51;6.57;;;3.55;;
73585;SDS011;61865;50.232;18.614;2022-09-06T01:19:33;7.03;;;3.75;;
73585;SDS011;61865;50.232;18.614;2022-09-06T01:22:15;7.10;;;3.35;;
73585;SDS011;61865;50.232;18.614;2022-09-06T01:27:51;9.15;;;3.40;;
73585;SDS011;61865;50.232;18.614;2022-09-06T01:30:27;9.50;;;3.28;;
73585;SDS011;61865;50.232;18.614;2022-09-06T01:32:52;5.28;;;2.85;;
73585;SDS011;61865;50.232;18.614;2022-09-06T01:35:23;8.27;;;3.15;;
73585;SDS011;61865;50.232;18.614;2022-09-06T01:45:00;7.25;;;2.88;;
73585;SDS011;61865;50.232;18.614;2022-09-06T01:47:28;7.88;;;3.30;;
73585;SDS011;61865;50.232;18.614;2022-09-06T01:50:03;9.07;;;3.10;;
73585;SDS011;61865;50.232;18.614;2022-09-06T01:52:40;7.65;;;3.30;;
73585;SDS011;61865;50.232;18.614;2022-09-06T01:55:14;7.85;;;3.50;;
73585;SDS011;61865;50.232;18.614;2022-09-06T01:57:47;6.72;;;3.30;;
73585;SDS011;61865;50.232;18.614;2022-09-06T02:00:18;6.25;;;3.28;;
73585;SDS011;61865;50.232;18.614;2022-09-06T02:02:44;7.88;;;3.60;;
73585;SDS011;61865;50.232;18.614;2022-09-06T02:05:15;6.45;;;3.22;;
73585;SDS011;61865;50.232;18.614;2022-09-06T02:07:43;8.15;;;3.58;;
73585;SDS011;61865;50.232;18.614;2022-09-06T02:10:08;7.30;;;3.38;;
73585;SDS011;61865;50.232;18.614;2022-09-06T02:12:36;6.32;;;3.63;;
73585;SDS011;61865;50.232;18.614;2022-09-06T02:15:01;7.05;;;3.67;;
73585;SDS011;61865;50.232;18.614;2022-09-06T02:17:29;16.45;;;3.58;;
73585;SDS011;61865;50.232;18.614;2022-09-06T02:19:53;11.55;;;3.45;;
73585;SDS011;61865;50.232;18.614;2022-09-06T02:22:18;6.55;;;3.55;;
73585;SDS011;61865;50.232;18.614;2022-09-06T02:24:43;6.63;;;3.47;;
73585;SDS011;61865;50.232;18.614;2022-09-06T02:27:10;9.27;;;3.22;;
73585;SDS011;61865;50.232;18.614;2022-09-06T02:29:33;11.13;;;3.47;;
73585;SDS011;61865;50.232;18.614;2022-09-06T02:31:57;9.00;;;3.45;;
73585;SDS011;61865;50.232;18.614;2022-09-06T02:34:26;6.15;;;3.17;;
73585;SDS011;61865;50.232;18.614;2022-09-06T02:36:48;8.50;;;2.97;;
73585;SDS011;61865;50.232;18.614;2022-09-06T02:39:10;7.40;;;3.13;;
73585;SDS011;61865;50.232;18.614;2022-09-06T02:41:33;5.80;;;3.00;;
73585;SDS011;61865;50.232;18.614;2022-09-06T02:43:55;5.80;;;3.15;;
73585;SDS011;61865;50.232;18.614;2022-09-06T02:46:17;5.68;;;3.30;;
73585;SDS011;61865;50.232;18.614;2022-09-06T02:48:39;5.25;;;3.10;;
73585;SDS011;61865;50.232;18.614;2022-09-06T02:51:04;7.75;;;3.55;;
73585;SDS011;61865;50.232;18.614;2022-09-06T02:53:26;7.28;;;3.85;;
73585;SDS011;61865;50.232;18.614;2022-09-06T02:55:48;10.18;;;4.45;;
73585;SDS011;61865;50.232;18.614;2022-09-06T02:58:10;8.93;;;3.80;;
73585;SDS011;61865;50.232;18.614;2022-09-06T03:00:32;9.30;;;3.97;;
73585;SDS011;61865;50.232;18.614;2022-09-06T03:02:55;10.07;;;4.03;;
73585;SDS011;61865;50.232;18.614;2022-09-06T03:05:17;7.90;;;3.55;;
73585;SDS011;61865;50.232;18.614;2022-09-06T03:07:41;10.68;;;4.10;;
73585;SDS011;61865;50.232;18.614;2022-09-06T03:10:03;7.32;;;3.83;;
73585;SDS011;61865;50.232;18.614;2022-09-06T03:12:26;8.80;;;3.97;;
73585;SDS011;61865;50.232;18.614;2022-09-06T03:14:48;13.52;;;3.95;;
73585;SDS011;61865;50.232;18.614;2022-09-06T03:17:10;7.22;;;3.42;;
73585;SDS011;61865;50.232;18.614;2022-09-06T03:19:32;6.28;;;2.88;;
73585;SDS011;61865;50.232;18.614;2022-09-06T03:21:54;6.65;;;3.38;;
73585;SDS011;61865;50.232;18.614;2022-09-06T03:24:17;8.07;;;3.88;;
73585;SDS011;61865;50.232;18.614;2022-09-06T03:26:39;7.50;;;3.78;;
73585;SDS011;61865;50.232;18.614;2022-09-06T03:29:01;6.55;;;3.78;;
73585;SDS011;61865;50.232;18.614;2022-09-06T03:31:23;7.75;;;4.22;;
73585;SDS011;61865;50.232;18.614;2022-09-06T03:33:45;10.75;;;3.45;;
73585;SDS011;61865;50.232;18.614;2022-09-06T03:36:07;9.32;;;4.38;;
73585;SDS011;61865;50.232;18.614;2022-09-06T03:38:29;7.55;;;3.17;;
73585;SDS011;61865;50.232;18.614;2022-09-06T03:40:52;6.47;;;3.63;;
73585;SDS011;61865;50.232;18.614;2022-09-06T03:43:15;8.48;;;4.00;;
73585;SDS011;61865;50.232;18.614;2022-09-06T03:45:38;6.78;;;3.85;;
73585;SDS011;61865;50.232;18.614;2022-09-06T03:48:00;7.00;;;3.85;;
73585;SDS011;61865;50.232;18.614;2022-09-06T03:50:22;7.30;;;4.10;;
73585;SDS011;61865;50.232;18.614;2022-09-06T03:52:44;8.98;;;3.67;;
73585;SDS011;61865;50.232;18.614;2022-09-06T03:55:07;8.02;;;3.67;;
73585;SDS011;61865;50.232;18.614;2022-09-06T03:57:32;6.88;;;3.45;;
73585;SDS011;61865;50.232;18.614;2022-09-06T03:59:54;9.93;;;3.60;;
73585;SDS011;61865;50.232;18.614;2022-09-06T04:02:16;5.18;;;2.83;;
73585;SDS011;61865;50.232;18.614;2022-09-06T04:04:38;7.20;;;3.63;;
73585;SDS011;61865;50.232;18.614;2022-09-06T04:07:00;10.80;;;3.38;;
73585;SDS011;61865;50.232;18.614;2022-09-06T04:09:22;8.85;;;3.60;;
73585;SDS011;61865;50.232;18.614;2022-09-06T04:11:44;10.15;;;4.07;;
73585;SDS011;61865;50.232;18.614;2022-09-06T04:14:07;10.20;;;4.25;;
73585;SDS011;61865;50.232;18.614;2022-09-06T04:16:29;11.13;;;4.30;;
73585;SDS011;61865;50.232;18.614;2022-09-06T04:18:51;6.47;;;3.85;;
73585;SDS011;61865;50.232;18.614;2022-09-06T04:21:13;12.18;;;3.70;;
73585;SDS011;61865;50.232;18.614;2022-09-06T04:23:35;9.80;;;3.88;;
73585;SDS011;61865;50.232;18.614;2022-09-06T04:25:57;7.10;;;3.40;;
73585;SDS011;61865;50.232;18.614;2022-09-06T04:28:20;11.88;;;3.40;;
73585;SDS011;61865;50.232;18.614;2022-09-06T04:30:44;7.20;;;2.80;;
73585;SDS011;61865;50.232;18.614;2022-09-06T04:33:06;7.70;;;3.65;;
73585;SDS011;61865;50.232;18.614;2022-09-06T04:35:28;11.00;;;4.55;;
73585;SDS011;61865;50.232;18.614;2022-09-06T04:37:50;19.52;;;9.13;;
73585;SDS011;61865;50.232;18.614;2022-09-06T04:40:11;11.07;;;4.88;;
73585;SDS011;61865;50.232;18.614;2022-09-06T04:42:34;11.75;;;4.60;;
73585;SDS011;61865;50.232;18.614;2022-09-06T04:44:56;8.52;;;4.00;;
73585;SDS011;61865;50.232;18.614;2022-09-06T04:47:19;8.90;;;4.32;;
73585;SDS011;61865;50.232;18.614;2022-09-06T04:49:42;8.82;;;3.55;;
73585;SDS011;61865;50.232;18.614;2022-09-06T04:52:04;6.35;;;4.07;;
73585;SDS011;61865;50.232;18.614;2022-09-06T04:54:26;9.80;;;3.63;;
73585;SDS011;61865;50.232;18.614;2022-09-06T04:56:48;8.20;;;3.53;;
73585;SDS011;61865;50.232;18.614;2022-09-06T04:59:10;12.35;;;4.22;;
73585;SDS011;61865;50.232;18.614;2022-09-06T05:01:32;7.50;;;3.75;;
73585;SDS011;61865;50.232;18.614;2022-09-06T05:03:55;8.48;;;3.60;;
73585;SDS011;61865;50.232;18.614;2022-09-06T05:06:19;11.75;;;3.97;;
73585;SDS011;61865;50.232;18.614;2022-09-06T05:08:43;9.90;;;3.75;;
73585;SDS011;61865;50.232;18.614;2022-09-06T05:11:05;11.60;;;3.85;;
73585;SDS011;61865;50.232;18.614;2022-09-06T05:13:28;5.55;;;3.28;;
73585;SDS011;61865;50.232;18.614;2022-09-06T05:15:50;6.55;;;2.97;;
73585;SDS011;61865;50.232;18.614;2022-09-06T05:18:12;7.68;;;3.45;;
73585;SDS011;61865;50.232;18.614;2022-09-06T05:20:36;9.15;;;3.08;;
73585;SDS011;61865;50.232;18.614;2022-09-06T05:22:58;5.32;;;3.13;;
73585;SDS011;61865;50.232;18.614;2022-09-06T05:25:20;6.07;;;3.25;;
73585;SDS011;61865;50.232;18.614;2022-09-06T05:27:42;5.70;;;2.90;;
73585;SDS011;61865;50.232;18.614;2022-09-06T05:30:04;10.02;;;3.33;;
73585;SDS011;61865;50.232;18.614;2022-09-06T05:32:27;6.30;;;2.85;;
73585;SDS011;61865;50.232;18.614;2022-09-06T05:34:49;6.68;;;3.15;;
73585;SDS011;61865;50.232;18.614;2022-09-06T05:37:12;7.38;;;2.85;;
73585;SDS011;61865;50.232;18.614;2022-09-06T05:39:34;7.55;;;3.30;;
73585;SDS011;61865;50.232;18.614;2022-09-06T05:41:56;5.95;;;3.45;;
73585;SDS011;61865;50.232;18.614;2022-09-06T05:44:19;7.60;;;3.45;;
73585;SDS011;61865;50.232;18.614;2022-09-06T05:46:41;17.23;;;3.83;;
73585;SDS011;61865;50.232;18.614;2022-09-06T05:49:04;11.13;;;3.40;;
73585;SDS011;61865;50.232;18.614;2022-09-06T05:51:27;6.68;;;3.55;;
73585;SDS011;61865;50.232;18.614;2022-09-06T05:53:50;9.27;;;3.30;;
73585;SDS011;61865;50.232;18.614;2022-09-06T05:56:13;8.95;;;3.50;;
73585;SDS011;61865;50.232;18.614;2022-09-06T05:58:35;10.63;;;3.67;;
73585;SDS011;61865;50.232;18.614;2022-09-06T06:01:04;10.40;;;4.00;;
73585;SDS011;61865;50.232;18.614;2022-09-06T06:03:28;8.48;;;3.40;;
73585;SDS011;61865;50.232;18.614;2022-09-06T06:05:50;6.97;;;3.53;;
73585;SDS011;61865;50.232;18.614;2022-09-06T06:08:12;9.40;;;4.25;;
73585;SDS011;61865;50.232;18.614;2022-09-06T06:10:35;7.82;;;3.63;;
73585;SDS011;61865;50.232;18.614;2022-09-06T06:12:58;12.35;;;3.47;;
73585;SDS011;61865;50.232;18.614;2022-09-06T06:15:20;8.15;;;3.58;;
73585;SDS011;61865;50.232;18.614;2022-09-06T06:17:42;7.47;;;3.65;;
73585;SDS011;61865;50.232;18.614;2022-09-06T06:20:05;5.10;;;3.00;;
73585;SDS011;61865;50.232;18.614;2022-09-06T06:22:28;6.25;;;3.42;;
73585;SDS011;61865;50.232;18.614;2022-09-06T06:24:50;12.38;;;3.63;;
73585;SDS011;61865;50.232;18.614;2022-09-06T06:27:13;6.72;;;3.67;;
73585;SDS011;61865;50.232;18.614;2022-09-06T06:29:35;7.68;;;3.30;;
73585;SDS011;61865;50.232;18.614;2022-09-06T06:31:57;9.10;;;3.67;;
73585;SDS011;61865;50.232;18.614;2022-09-06T06:34:19;10.15;;;3.65;;
73585;SDS011;61865;50.232;18.614;2022-09-06T06:36:41;6.63;;;2.85;;
73585;SDS011;61865;50.232;18.614;2022-09-06T06:39:04;11.25;;;3.55;;
73585;SDS011;61865;50.232;18.614;2022-09-06T06:41:28;16.27;;;4.05;;
73585;SDS011;61865;50.232;18.614;2022-09-06T06:43:52;12.05;;;3.50;;
73585;SDS011;61865;50.232;18.614;2022-09-06T06:46:15;5.82;;;3.03;;
73585;SDS011;61865;50.232;18.614;2022-09-06T06:48:38;5.85;;;3.20;;
73585;SDS011;61865;50.232;18.614;2022-09-06T06:51:02;17.40;;;3.30;;
73585;SDS011;61865;50.232;18.614;2022-09-06T06:53:24;12.45;;;3.65;;
73585;SDS011;61865;50.232;18.614;2022-09-06T06:55:46;6.57;;;3.42;;
73585;SDS011;61865;50.232;18.614;2022-09-06T06:58:09;8.75;;;3.65;;
73585;SDS011;61865;50.232;18.614;2022-09-06T07:00:32;9.18;;;3.50;;
73585;SDS011;61865;50.232;18.614;2022-09-06T07:02:54;9.32;;;3.78;;
73585;SDS011;61865;50.232;18.614;2022-09-06T07:05:16;11.93;;;3.35;;
73585;SDS011;61865;50.232;18.614;2022-09-06T07:07:38;8.57;;;3.60;;
73585;SDS011;61865;50.232;18.614;2022-09-06T07:10:00;6.47;;;3.38;;
73585;SDS011;61865;50.232;18.614;2022-09-06T07:12:22;12.93;;;3.53;;
73585;SDS011;61865;50.232;18.614;2022-09-06T07:14:44;8.90;;;3.47;;
73585;SDS011;61865;50.232;18.614;2022-09-06T07:17:08;7.82;;;3.53;;
73585;SDS011;61865;50.232;18.614;2022-09-06T07:19:30;10.00;;;3.45;;
73585;SDS011;61865;50.232;18.614;2022-09-06T07:21:52;11.77;;;3.28;;
73585;SDS011;61865;50.232;18.614;2022-09-06T07:24:15;12.75;;;4.47;;
73585;SDS011;61865;50.232;18.614;2022-09-06T07:26:37;10.60;;;3.95;;
73585;SDS011;61865;50.232;18.614;2022-09-06T07:29:00;12.55;;;3.88;;
73585;SDS011;61865;50.232;18.614;2022-09-06T07:31:23;17.20;;;4.43;;
73585;SDS011;61865;50.232;18.614;2022-09-06T07:33:47;8.38;;;3.50;;
73585;SDS011;61865;50.232;18.614;2022-09-06T07:36:10;11.93;;;4.28;;
73585;SDS011;61865;50.232;18.614;2022-09-06T07:38:32;9.88;;;3.78;;
73585;SDS011;61865;50.232;18.614;2022-09-06T07:40:56;10.77;;;3.75;;
73585;SDS011;61865;50.232;18.614;2022-09-06T07:43:19;11.65;;;4.93;;
73585;SDS011;61865;50.232;18.614;2022-09-06T07:45:41;15.55;;;4.15;;
73585;SDS011;61865;50.232;18.614;2022-09-06T07:48:03;10.88;;;4.32;;
73585;SDS011;61865;50.232;18.614;2022-09-06T07:50:27;10.07;;;4.70;;
73585;SDS011;61865;50.232;18.614;2022-09-06T07:52:51;9.30;;;4.00;;
73585;SDS011;61865;50.232;18.614;2022-09-06T07:55:13;13.63;;;4.72;;
73585;SDS011;61865;50.232;18.614;2022-09-06T07:57:35;13.27;;;4.18;;
73585;SDS011;61865;50.232;18.614;2022-09-06T07:59:57;13.70;;;4.47;;
73585;SDS011;61865;50.232;18.614;2022-09-06T08:02:20;6.88;;;3.85;;
73585;SDS011;61865;50.232;18.614;2022-09-06T08:04:42;12.27;;;4.72;;
73585;SDS011;61865;50.232;18.614;2022-09-06T08:07:06;12.40;;;3.75;;
73585;SDS011;61865;50.232;18.614;2022-09-06T08:09:28;21.73;;;6.93;;
73585;SDS011;61865;50.232;18.614;2022-09-06T08:11:50;26.02;;;13.93;;
73585;SDS011;61865;50.232;18.614;2022-09-06T08:14:12;15.90;;;8.27;;
73585;SDS011;61865;50.232;18.614;2022-09-06T08:16:35;21.92;;;9.75;;
73585;SDS011;61865;50.232;18.614;2022-09-06T08:18:58;36.55;;;21.52;;
73585;SDS011;61865;50.232;18.614;2022-09-06T08:21:21;13.25;;;6.57;;
73585;SDS011;61865;50.232;18.614;2022-09-06T08:23:47;17.00;;;8.35;;
73585;SDS011;61865;50.232;18.614;2022-09-06T08:26:10;18.05;;;8.32;;
73585;SDS011;61865;50.232;18.614;2022-09-06T08:28:32;34.60;;;12.38;;
73585;SDS011;61865;50.232;18.614;2022-09-06T08:30:54;18.95;;;7.80;;
73585;SDS011;61865;50.232;18.614;2022-09-06T08:33:16;17.10;;;6.15;;
73585;SDS011;61865;50.232;18.614;2022-09-06T08:35:40;8.13;;;3.30;;
73585;SDS011;61865;50.232;18.614;2022-09-06T08:38:02;7.95;;;3.65;;
73585;SDS011;61865;50.232;18.614;2022-09-06T08:40:26;8.88;;;3.97;;
73585;SDS011;61865;50.232;18.614;2022-09-06T08:42:48;9.65;;;4.28;;
73585;SDS011;61865;50.232;18.614;2022-09-06T08:45:10;14.93;;;4.63;;
73585;SDS011;61865;50.232;18.614;2022-09-06T08:47:38;8.95;;;4.38;;
73585;SDS011;61865;50.232;18.614;2022-09-06T08:50:01;7.88;;;3.70;;
73585;SDS011;61865;50.232;18.614;2022-09-06T08:52:40;10.82;;;3.83;;
73585;SDS011;61865;50.232;18.614;2022-09-06T08:55:14;12.05;;;4.38;;
73585;SDS011;61865;50.232;18.614;2022-09-06T08:57:48;17.55;;;5.43;;
73585;SDS011;61865;50.232;18.614;2022-09-06T09:00:20;10.60;;;3.85;;
73585;SDS011;61865;50.232;18.614;2022-09-06T09:02:43;8.40;;;4.13;;
73585;SDS011;61865;50.232;18.614;2022-09-06T09:05:06;9.98;;;3.95;;
73585;SDS011;61865;50.232;18.614;2022-09-06T09:07:41;15.52;;;4.53;;
73585;SDS011;61865;50.232;18.614;2022-09-06T09:10:07;13.35;;;3.75;;
73585;SDS011;61865;50.232;18.614;2022-09-06T09:12:33;14.20;;;4.43;;
73585;SDS011;61865;50.232;18.614;2022-09-06T09:15:05;10.27;;;3.78;;
73585;SDS011;61865;50.232;18.614;2022-09-06T09:17:31;12.40;;;4.38;;
73585;SDS011;61865;50.232;18.614;2022-09-06T09:19:56;8.85;;;3.58;;
73585;SDS011;61865;50.232;18.614;2022-09-06T09:22:18;11.05;;;3.90;;
73585;SDS011;61865;50.232;18.614;2022-09-06T09:24:40;9.73;;;4.13;;
73585;SDS011;61865;50.232;18.614;2022-09-06T09:27:04;12.40;;;4.38;;
73585;SDS011;61865;50.232;18.614;2022-09-06T09:29:30;13.82;;;3.92;;
73585;SDS011;61865;50.232;18.614;2022-09-06T09:31:54;14.63;;;3.72;;
73585;SDS011;61865;50.232;18.614;2022-09-06T09:34:26;12.80;;;4.25;;
73585;SDS011;61865;50.232;18.614;2022-09-06T09:36:49;13.52;;;4.32;;
73585;SDS011;61865;50.232;18.614;2022-09-06T09:39:32;9.07;;;3.92;;
73585;SDS011;61865;50.232;18.614;2022-09-06T09:41:55;18.73;;;4.05;;
73585;SDS011;61865;50.232;18.614;2022-09-06T09:44:17;10.98;;;3.40;;
73585;SDS011;61865;50.232;18.614;2022-09-06T09:46:41;14.68;;;3.63;;
73585;SDS011;61865;50.232;18.614;2022-09-06T09:49:08;10.85;;;4.07;;
73585;SDS011;61865;50.232;18.614;2022-09-06T09:51:34;8.18;;;4.18;;
73585;SDS011;61865;50.232;18.614;2022-09-06T09:53:58;15.30;;;4.03;;
73585;SDS011;61865;50.232;18.614;2022-09-06T09:56:25;9.30;;;3.25;;
73585;SDS011;61865;50.232;18.614;2022-09-06T09:58:49;9.20;;;3.47;;
73585;SDS011;61865;50.232;18.614;2022-09-06T10:01:18;10.45;;;3.67;;
73585;SDS011;61865;50.232;18.614;2022-09-06T10:03:43;10.93;;;3.10;;
73585;SDS011;61865;50.232;18.614;2022-09-06T10:06:07;6.50;;;2.97;;
73585;SDS011;61865;50.232;18.614;2022-09-06T10:08:32;11.38;;;3.55;;
73585;SDS011;61865;50.232;18.614;2022-09-06T10:10:59;10.45;;;3.80;;
73585;SDS011;61865;50.232;18.614;2022-09-06T10:13:21;9.27;;;3.58;;
73585;SDS011;61865;50.232;18.614;2022-09-06T10:15:45;6.32;;;3.38;;
73585;SDS011;61865;50.232;18.614;2022-09-06T10:18:12;7.00;;;2.83;;
73585;SDS011;61865;50.232;18.614;2022-09-06T10:20:40;8.18;;;2.92;;
73585;SDS011;61865;50.232;18.614;2022-09-06T10:23:09;4.15;;;2.67;;
73585;SDS011;61865;50.232;18.614;2022-09-06T10:25:37;8.23;;;2.95;;
73585;SDS011;61865;50.232;18.614;2022-09-06T10:28:14;5.43;;;2.58;;
73585;SDS011;61865;50.232;18.614;2022-09-06T10:30:53;11.35;;;3.30;;
73585;SDS011;61865;50.232;18.614;2022-09-06T10:33:28;7.22;;;2.50;;
73585;SDS011;61865;50.232;18.614;2022-09-06T10:35:57;11.00;;;2.92;;
73585;SDS011;61865;50.232;18.614;2022-09-06T10:38:26;6.53;;;2.70;;
73585;SDS011;61865;50.232;18.614;2022-09-06T10:40:59;9.82;;;2.40;;
73585;SDS011;61865;50.232;18.614;2022-09-06T10:43:43;8.70;;;2.70;;
73585;SDS011;61865;50.232;18.614;2022-09-06T10:46:13;8.88;;;2.70;;
73585;SDS011;61865;50.232;18.614;2022-09-06T10:48:38;12.65;;;2.60;;
73585;SDS011;61865;50.232;18.614;2022-09-06T10:51:04;44.45;;;5.97;;
73585;SDS011;61865;50.232;18.614;2022-09-06T10:53:35;5.43;;;2.53;;
73585;SDS011;61865;50.232;18.614;2022-09-06T10:56:06;5.13;;;2.90;;
73585;SDS011;61865;50.232;18.614;2022-09-06T10:58:32;9.60;;;2.40;;
73585;SDS011;61865;50.232;18.614;2022-09-06T11:00:57;6.82;;;2.42;;
73585;SDS011;61865;50.232;18.614;2022-09-06T11:03:21;5.75;;;2.60;;
73585;SDS011;61865;50.232;18.614;2022-09-06T11:05:49;10.00;;;2.70;;
73585;SDS011;61865;50.232;18.614;2022-09-06T11:08:14;8.80;;;2.40;;
73585;SDS011;61865;50.232;18.614;2022-09-06T11:10:42;4.93;;;2.50;;
73585;SDS011;61865;50.232;18.614;2022-09-06T11:13:09;14.02;;;2.85;;
73585;SDS011;61865;50.232;18.614;2022-09-06T11:15:36;6.03;;;2.85;;
73585;SDS011;61865;50.232;18.614;2022-09-06T11:18:04;3.67;;;2.15;;
73585;SDS011;61865;50.232;18.614;2022-09-06T11:20:31;5.53;;;2.70;;
73585;SDS011;61865;50.232;18.614;2022-09-06T11:25:56;6.35;;;2.67;;
73585;SDS011;61865;50.232;18.614;2022-09-06T11:28:38;5.65;;;2.58;;
73585;SDS011;61865;50.232;18.614;2022-09-06T11:31:04;6.07;;;2.75;;
73585;SDS011;61865;50.232;18.614;2022-09-06T11:33:30;13.48;;;2.70;;
73585;SDS011;61865;50.232;18.614;2022-09-06T11:36:13;6.13;;;2.33;;
73585;SDS011;61865;50.232;18.614;2022-09-06T11:38:38;8.68;;;2.63;;
73585;SDS011;61865;50.232;18.614;2022-09-06T11:41:03;7.55;;;2.33;;
73585;SDS011;61865;50.232;18.614;2022-09-06T11:43:42;5.85;;;2.70;;
73585;SDS011;61865;50.232;18.614;2022-09-06T11:46:07;4.95;;;2.50;;
73585;SDS011;61865;50.232;18.614;2022-09-06T11:51:10;10.15;;;2.75;;
73585;SDS011;61865;50.232;18.614;2022-09-06T11:53:33;21.35;;;3.08;;
73585;SDS011;61865;50.232;18.614;2022-09-06T11:56:24;5.32;;;2.17;;
73585;SDS011;61865;50.232;18.614;2022-09-06T11:58:50;4.65;;;2.15;;
73585;SDS011;61865;50.232;18.614;2022-09-06T12:01:33;4.75;;;2.30;;
73585;SDS011;61865;50.232;18.614;2022-09-06T12:06:24;6.70;;;2.53;;
73585;SDS011;61865;50.232;18.614;2022-09-06T12:08:49;8.45;;;2.33;;
73585;SDS011;61865;50.232;18.614;2022-09-06T12:11:32;8.88;;;2.38;;
73585;SDS011;61865;50.232;18.614;2022-09-06T12:13:57;5.78;;;2.60;;
73585;SDS011;61865;50.232;18.614;2022-09-06T12:17:16;15.18;;;2.42;;
73585;SDS011;61865;50.232;18.614;2022-09-06T12:19:40;5.90;;;2.58;;
73585;SDS011;61865;50.232;18.614;2022-09-06T12:22:07;4.32;;;2.40;;
73585;SDS011;61865;50.232;18.614;2022-09-06T12:25:16;3.92;;;2.10;;
73585;SDS011;61865;50.232;18.614;2022-09-06T12:27:48;6.40;;;2.47;;
73585;SDS011;61865;50.232;18.614;2022-09-06T12:30:12;7.82;;;2.80;;
73585;SDS011;61865;50.232;18.614;2022-09-06T12:32:50;4.38;;;2.30;;
73585;SDS011;61865;50.232;18.614;2022-09-06T12:35:12;6.35;;;2.45;;
73585;SDS011;61865;50.232;18.614;2022-09-06T12:37:49;7.07;;;2.40;;
73585;SDS011;61865;50.232;18.614;2022-09-06T12:40:16;3.92;;;2.15;;
73585;SDS011;61865;50.232;18.614;2022-09-06T12:42:39;6.30;;;2.83;;
73585;SDS011;61865;50.232;18.614;2022-09-06T12:45:07;6.72;;;3.00;;
73585;SDS011;61865;50.232;18.614;2022-09-06T12:47:32;6.80;;;2.38;;
73585;SDS011;61865;50.232;18.614;2022-09-06T12:50:04;6.53;;;2.45;;
73585;SDS011;61865;50.232;18.614;2022-09-06T12:52:28;4.47;;;2.17;;
73585;SDS011;61865;50.232;18.614;2022-09-06T12:54:50;7.35;;;2.05;;
73585;SDS011;61865;50.232;18.614;2022-09-06T12:57:13;5.70;;;2.35;;
73585;SDS011;61865;50.232;18.614;2022-09-06T12:59:47;7.47;;;2.30;;
73585;SDS011;61865;50.232;18.614;2022-09-06T13:02:11;5.05;;;2.50;;
73585;SDS011;61865;50.232;18.614;2022-09-06T13:04:36;7.10;;;2.58;;
73585;SDS011;61865;50.232;18.614;2022-09-06T13:07:02;9.65;;;2.30;;
73585;SDS011;61865;50.232;18.614;2022-09-06T13:09:25;12.35;;;2.58;;
73585;SDS011;61865;50.232;18.614;2022-09-06T13:11:49;7.00;;;2.78;;
73585;SDS011;61865;50.232;18.614;2022-09-06T13:14:12;8.43;;;2.88;;
73585;SDS011;61865;50.232;18.614;2022-09-06T13:16:43;8.05;;;2.42;;
73585;SDS011;61865;50.232;18.614;2022-09-06T13:19:10;4.70;;;2.38;;
73585;SDS011;61865;50.232;18.614;2022-09-06T13:21:33;14.05;;;2.58;;
73585;SDS011;61865;50.232;18.614;2022-09-06T13:24:00;6.30;;;2.50;;
73585;SDS011;61865;50.232;18.614;2022-09-06T13:26:38;5.80;;;2.50;;
73585;SDS011;61865;50.232;18.614;2022-09-06T13:29:10;7.32;;;2.88;;
73585;SDS011;61865;50.232;18.614;2022-09-06T13:31:45;8.25;;;2.20;;
73585;SDS011;61865;50.232;18.614;2022-09-06T13:34:08;16.08;;;2.83;;
73585;SDS011;61865;50.232;18.614;2022-09-06T13:36:30;10.88;;;2.45;;
73585;SDS011;61865;50.232;18.614;2022-09-06T13:38:53;7.93;;;2.55;;
73585;SDS011;61865;50.232;18.614;2022-09-06T13:41:34;9.73;;;2.45;;
73585;SDS011;61865;50.232;18.614;2022-09-06T13:43:58;5.85;;;2.63;;
73585;SDS011;61865;50.232;18.614;2022-09-06T13:46:22;4.00;;;2.22;;
73585;SDS011;61865;50.232;18.614;2022-09-06T13:48:45;6.13;;;2.50;;
73585;SDS011;61865;50.232;18.614;2022-09-06T13:51:07;7.28;;;2.20;;
73585;SDS011;61865;50.232;18.614;2022-09-06T13:53:30;8.10;;;2.50;;
73585;SDS011;61865;50.232;18.614;2022-09-06T13:55:51;13.25;;;2.45;;
73585;SDS011;61865;50.232;18.614;2022-09-06T13:58:13;7.07;;;2.58;;
73585;SDS011;61865;50.232;18.614;2022-09-06T14:00:36;7.10;;;2.13;;
73585;SDS011;61865;50.232;18.614;2022-09-06T14:03:00;8.07;;;2.55;;
73585;SDS011;61865;50.232;18.614;2022-09-06T14:05:23;10.00;;;2.60;;
73585;SDS011;61865;50.232;18.614;2022-09-06T14:07:45;7.07;;;2.20;;
73585;SDS011;61865;50.232;18.614;2022-09-06T14:10:07;17.23;;;2.80;;
73585;SDS011;61865;50.232;18.614;2022-09-06T14:12:30;4.65;;;2.05;;
73585;SDS011;61865;50.232;18.614;2022-09-06T14:14:53;9.20;;;2.65;;
73585;SDS011;61865;50.232;18.614;2022-09-06T14:17:15;5.68;;;2.47;;
73585;SDS011;61865;50.232;18.614;2022-09-06T14:19:37;10.63;;;2.55;;
73585;SDS011;61865;50.232;18.614;2022-09-06T14:22:00;10.48;;;2.63;;
73585;SDS011;61865;50.232;18.614;2022-09-06T14:24:24;5.70;;;2.58;;
73585;SDS011;61865;50.232;18.614;2022-09-06T14:26:46;6.57;;;2.60;;
73585;SDS011;61865;50.232;18.614;2022-09-06T14:29:08;7.03;;;2.42;;
73585;SDS011;61865;50.232;18.614;2022-09-06T14:31:30;10.43;;;2.40;;
73585;SDS011;61865;50.232;18.614;2022-09-06T14:33:53;8.20;;;2.75;;
73585;SDS011;61865;50.232;18.614;2022-09-06T14:36:16;9.48;;;2.40;;
73585;SDS011;61865;50.232;18.614;2022-09-06T14:38:41;5.45;;;2.60;;